• Join FlightAware (Why Join?)
  • Login
  • US Flag 
12:00PM EST


 

Airport Tracker/Info


-or-


 

Live Flight TrackerFlight Track Log ✈ CFH26 ✈ 12-Jul-2013 ✈ YPGV / GOV - YNUM / NUB

Flight Track Log - Related Links

Times and Time Zones

All times are in EDT time to prevent confusion due to time zone crossing. See the CFH26 flight status page for this flight to view local times or setup timezone preferences in your user account.

Time Position Orientation Groundspeed Altitude Reporting Facility
EDT Latitude Longitude Course Direction KTS MPH feet Rate Location/Type
08:03AM -12.2650 136.8164 208° Southwest  Level Aus ATC (Calculated)
08:04AM -12.3906 136.7482 208° Southwest  Level Aus ATC (Calculated)
08:06AM -12.4471 136.7173 208° Southwest  Level Estimated
08:06AM -12.5161 136.6799 360° North  Level Aus ATC (Calculated)
08:07AM -12.5161 136.6799 360° North  Level Aus ATC (Calculated)
08:07AM -12.5161 136.6799 208° Southwest  Level Aus ATC (Calculated)
08:09AM -12.5727 136.6491 208° Southwest  Level FlightAware Approximate
08:10AM -12.6219 136.6223 208° Southwest  Level FlightAware Approximate
08:10AM -12.7044 136.5773 28° Northeast  Level Aus ATC (Calculated)
08:11AM -12.6711 136.5955 208° Southwest  Level FlightAware Approximate
08:11AM -12.7671 136.5431 28° Northeast  Level Aus ATC (Calculated)
08:12AM -12.7610 136.5465 208° Southwest  Level FlightAware Approximate
08:13AM -12.8196 136.5145 208° Southwest  Level FlightAware Approximate
08:14AM -12.8688 136.4877 208° Southwest  Level FlightAware Approximate
08:14AM -12.8926 136.4747 208° Southwest  Level Aus ATC (Calculated)
08:14AM -12.9554 136.4404 208° Southwest  Level Aus ATC (Calculated)
08:16AM -13.0095 136.4108 208° Southwest  Level FlightAware Approximate
08:17AM -13.0586 136.3839 208° Southwest  Level FlightAware Approximate
08:17AM -13.0808 136.3718 208° Southwest  Level Aus ATC (Calculated)
08:18AM -13.1078 136.3570 208° Southwest  Level FlightAware Approximate
08:19AM -13.1505 136.3337 208° Southwest  Level FlightAware Approximate
08:20AM -13.1997 136.3068 208° Southwest  Level FlightAware Approximate
08:20AM -13.2690 136.2688 208° Southwest  Level Aus ATC (Calculated)
08:22AM -13.3386 136.2306 208° Southwest  Level FlightAware Approximate
08:22AM -13.3944 136.2000 360° North  Level Aus ATC (Calculated)
08:23AM -13.3944 136.2000 208° Southwest  Level Aus ATC (Calculated)
08:23AM -13.4571 136.1656 208° Southwest  Level Aus ATC (Calculated)
08:25AM -13.5071 136.1382 208° Southwest  Level FlightAware Approximate
08:26AM -13.5562 136.1112 208° Southwest  Level FlightAware Approximate
08:26AM -13.5825 136.0968 208° Southwest  Level Aus ATC (Calculated)
08:27AM -13.6452 136.0623 208° Southwest  Level Aus ATC (Calculated)
08:29AM -13.7361 136.0123 208° Southwest  Level FlightAware Approximate
08:30AM -13.7852 135.9852 208° Southwest  Level FlightAware Approximate
08:31AM -13.8343 135.9582 208° Southwest  Level FlightAware Approximate
08:32AM -13.8835 135.9311 208° Southwest  Level FlightAware Approximate
08:33AM -13.9326 135.9040 208° Southwest  Level FlightAware Approximate
08:34AM -13.9817 135.8769 208° Southwest  Level FlightAware Approximate
08:35AM -14.0308 135.8498 208° Southwest  Level FlightAware Approximate
08:36AM -14.0799 135.8227 208° Southwest  Level FlightAware Approximate
08:37AM -14.1290 135.7956 208° Southwest  Level FlightAware Approximate
08:38AM -14.1782 135.7684 208° Southwest  Level FlightAware Approximate
08:39AM -14.2273 135.7413 208° Southwest  Level FlightAware Approximate
08:40AM -14.2764 135.7141 208° Southwest  Level FlightAware Approximate
08:41AM -14.2695 135.7147 28° Northeast  Level Estimated
08:42AM -14.2695 135.7147 138° Southeast  Level Estimated
08:43AM -14.2695 135.7147 138° Southeast  Level Estimated
08:44AM -14.2695 135.7147 138° Southeast  Level Estimated
08:45AM -14.2695 135.7147 138° Southeast  Level Estimated
08:46AM -14.2695 135.7147 138° Southeast  Level Estimated
08:47AM -14.2695 135.7147 138° Southeast  Level Estimated
08:48AM -14.2695 135.7147 138° Southeast  Level Estimated
08:49AM -14.2695 135.7147 138° Southeast  Level Estimated
08:50AM -14.2695 135.7147 138° Southeast  Level Estimated
08:51AM -14.2695 135.7147 138° Southeast  Level Estimated
08:52AM -14.2717 135.7167 208° Southwest  Level FlightAware Approximate
08:53AM -14.2695 135.7147 208° Southwest  Level Estimated
08:54AM -14.2717 135.7167 208° Southwest  Level FlightAware Approximate
08:55AM -14.2695 135.7147 208° Southwest  Level Estimated
08:56AM -14.2717 135.7167 208° Southwest  Level FlightAware Approximate
08:57AM -14.2695 135.7147 208° Southwest  Level Estimated
08:58AM -14.2717 135.7167 208° Southwest  Level FlightAware Approximate
08:59AM -14.2695 135.7147 208° Southwest  Level Estimated
09:00AM -14.2717 135.7167 208° Southwest  Level FlightAware Approximate